Аэропорт: Уральск. Уральск

ICAO: UARR

METAR:
2024-05-18 17:30:00
UARR 181730Z 03005MPS CAVOK 16/07 Q1012 NOSIG RMK QFE756/1008
TAF:
2024-05-18 17:00:00
TAF UARR 181700Z 1818/1903 02006MPS CAVOK